createdAt,value
2023-01-06T00:01:22.919Z,3.23
2023-01-06T00:05:25.755Z,3.10
2023-01-06T00:09:28.498Z,3.00
2023-01-06T00:13:33.118Z,3.20
2023-01-06T00:17:35.792Z,3.23
2023-01-06T00:21:38.492Z,3.27
2023-01-06T00:25:41.177Z,2.60
2023-01-06T00:29:45.288Z,2.50
2023-01-06T00:33:47.969Z,2.97
2023-01-06T00:37:50.689Z,2.90
2023-01-06T00:42:05.982Z,2.97
2023-01-06T00:46:09.987Z,2.87
2023-01-06T00:50:12.864Z,3.17
2023-01-06T00:54:16.301Z,2.73
2023-01-06T00:58:19.293Z,2.80
2023-01-06T01:02:23.543Z,3.10
2023-01-06T01:06:26.457Z,3.43
2023-01-06T01:10:29.141Z,3.13
2023-01-06T01:14:32.210Z,3.10
2023-01-06T01:18:37.109Z,2.87
2023-01-06T01:22:39.903Z,2.83
2023-01-06T01:26:42.719Z,3.00
2023-01-06T01:30:45.484Z,2.67
2023-01-06T01:34:49.659Z,2.97
2023-01-06T01:38:52.348Z,2.73
2023-01-06T01:42:55.008Z,2.67
2023-01-06T01:46:57.948Z,3.33
2023-01-06T01:51:04.945Z,3.13
2023-01-06T01:55:09.228Z,2.77
2023-01-06T01:59:15.924Z,2.70
2023-01-06T02:03:20.275Z,3.20
2023-01-06T02:07:26.982Z,3.20
2023-01-06T02:11:32.373Z,2.90
2023-01-06T02:15:35.419Z,2.53
2023-01-06T02:19:56.258Z,2.77
2023-01-06T02:24:38.850Z,2.80
2023-01-06T02:29:18.328Z,2.80
2023-01-06T02:33:25.306Z,2.83
2023-01-06T02:37:36.274Z,3.03
2023-01-06T02:41:42.893Z,2.97
2023-01-06T02:45:50.520Z,3.07
2023-01-06T02:49:59.365Z,3.60
2023-01-06T02:54:09.912Z,3.20
2023-01-06T02:58:17.265Z,3.20
2023-01-06T03:02:20.935Z,3.27
2023-01-06T03:06:27.887Z,3.00
2023-01-06T03:10:31.708Z,2.90
2023-01-06T03:14:36.472Z,3.10
2023-01-06T03:18:39.867Z,3.60
2023-01-06T03:22:44.835Z,3.23
2023-01-06T03:26:52.382Z,3.23
2023-01-06T03:31:05.301Z,3.23
2023-01-06T03:35:23.104Z,3.40
2023-01-06T03:39:33.510Z,2.93
2023-01-06T03:43:41.012Z,3.20
2023-01-06T03:47:50.639Z,2.80
2023-01-06T03:51:57.547Z,3.20
2023-01-06T03:56:10.026Z,2.67
2023-01-06T04:00:15.395Z,3.27
2023-01-06T04:04:18.525Z,3.20
2023-01-06T04:08:21.595Z,2.50
2023-01-06T04:12:40.650Z,2.30
2023-01-06T04:16:43.593Z,2.23
2023-01-06T04:20:46.279Z,2.23
2023-01-06T04:24:48.973Z,2.30
2023-01-06T04:28:53.005Z,2.30
2023-01-06T04:32:55.670Z,2.93
2023-01-06T04:36:58.628Z,2.50
2023-01-06T04:41:01.303Z,2.27
2023-01-06T04:45:06.471Z,2.33
2023-01-06T04:49:09.628Z,2.40
2023-01-06T04:53:13.735Z,2.13
2023-01-06T04:57:16.425Z,2.40
2023-01-06T05:01:20.537Z,2.33
2023-01-06T05:05:23.414Z,2.30
2023-01-06T05:09:26.320Z,2.67
2023-01-06T05:13:29.440Z,2.30
2023-01-06T05:17:33.568Z,1.80
2023-01-06T05:21:36.227Z,1.90
2023-01-06T05:25:38.993Z,1.97
2023-01-06T05:29:42.212Z,1.70
2023-01-06T05:33:46.697Z,1.80
2023-01-06T05:37:49.454Z,1.80
2023-01-06T05:41:52.120Z,2.07
2023-01-06T05:45:55.724Z,2.83
2023-01-06T05:50:00.033Z,2.30
2023-01-06T05:54:02.809Z,2.10
2023-01-06T05:58:05.484Z,1.40
2023-01-06T06:02:08.467Z,1.50
2023-01-06T06:06:13.154Z,1.70
2023-01-06T06:10:15.825Z,1.40
2023-01-06T06:14:18.604Z,1.50
2023-01-06T06:18:21.230Z,1.60
2023-01-06T06:22:25.291Z,1.70
2023-01-06T06:26:28.611Z,1.47
2023-01-06T06:30:31.328Z,1.40
2023-01-06T06:34:34.059Z,3.67
2023-01-06T06:38:38.184Z,4.80
2023-01-06T06:42:40.878Z,4.37
2023-01-06T06:46:43.520Z,2.97
2023-01-06T06:50:46.251Z,1.90
2023-01-06T06:54:50.245Z,2.60
2023-01-06T06:58:52.913Z,2.03
2023-01-06T07:02:55.659Z,2.50
2023-01-06T07:06:58.445Z,2.20
2023-01-06T07:11:03.131Z,1.90
2023-01-06T07:15:06.711Z,1.50
2023-01-06T07:19:13.669Z,1.63
2023-01-06T07:23:17.112Z,2.00
2023-01-06T07:27:21.434Z,2.00
2023-01-06T07:31:24.117Z,1.77
2023-01-06T07:35:26.943Z,2.13
2023-01-06T07:39:29.655Z,2.00
2023-01-06T07:43:33.989Z,1.57
2023-01-06T07:47:37.034Z,1.70
2023-01-06T07:51:39.721Z,2.20
2023-01-06T07:55:42.633Z,1.90
2023-01-06T07:59:46.691Z,1.80
2023-01-06T08:03:49.466Z,2.17
2023-01-06T08:07:52.424Z,2.30
2023-01-06T08:11:55.371Z,2.30
2023-01-06T08:15:59.532Z,2.27
2023-01-06T08:20:02.373Z,2.10
2023-01-06T08:24:06.460Z,1.80
2023-01-06T08:28:09.369Z,2.00
2023-01-06T08:32:13.652Z,2.20
2023-01-06T08:36:21.199Z,1.97
2023-01-06T08:40:23.909Z,2.23
2023-01-06T08:44:26.637Z,2.03
2023-01-06T08:48:31.213Z,2.00
2023-01-06T08:52:33.896Z,2.10
2023-01-06T08:56:36.925Z,1.70
2023-01-06T09:00:41.836Z,1.33
2023-01-06T09:04:46.213Z,1.23
2023-01-06T09:08:49.623Z,1.20
2023-01-06T09:12:52.363Z,1.40
2023-01-06T09:16:55.066Z,0.97
2023-01-06T09:20:59.383Z,1.00
2023-01-06T09:25:02.379Z,0.90
2023-01-06T09:29:05.117Z,0.90
2023-01-06T09:33:08.159Z,0.80
2023-01-06T09:37:12.510Z,0.70
2023-01-06T09:41:48.018Z,0.60
2023-01-06T09:45:54.648Z,0.80
2023-01-06T09:50:00.995Z,0.70
2023-01-06T09:54:11.260Z,0.87
2023-01-06T09:58:15.920Z,0.70
2023-01-06T10:02:23.155Z,0.50
2023-01-06T10:06:31.729Z,0.70
2023-01-06T10:10:43.507Z,0.50
2023-01-06T10:14:54.833Z,1.00
2023-01-06T10:19:05.906Z,0.60
2023-01-06T10:23:16.812Z,0.70
2023-01-06T10:27:28.202Z,0.50
2023-01-06T10:31:35.166Z,0.60
2023-01-06T10:35:38.203Z,0.87
2023-01-06T10:39:42.686Z,0.80
2023-01-06T10:43:47.379Z,0.80
2023-01-06T10:47:52.232Z,0.60
2023-01-06T10:52:03.237Z,0.80
2023-01-06T10:56:09.142Z,0.60
2023-01-06T11:00:18.621Z,0.67
2023-01-06T11:04:21.630Z,0.80
2023-01-06T11:08:24.492Z,0.90
2023-01-06T11:12:31.837Z,1.23
2023-01-06T11:16:38.082Z,3.10
2023-01-06T11:20:41.398Z,7.80
2023-01-06T11:24:53.539Z,1.20
2023-01-06T11:28:56.739Z,1.20
2023-01-06T11:33:01.125Z,1.30
2023-01-06T11:37:03.903Z,1.10
2023-01-06T11:41:09.236Z,2.00
2023-01-06T11:45:30.739Z,1.63
2023-01-06T11:49:36.867Z,1.90
2023-01-06T11:53:40.461Z,1.03
2023-01-06T11:57:45.493Z,1.10
2023-01-06T12:01:53.536Z,1.40
2023-01-06T12:06:01.676Z,0.97
2023-01-06T12:10:07.543Z,1.00
2023-01-06T12:14:27.377Z,0.97
2023-01-06T12:18:33.659Z,1.40
2023-01-06T12:22:41.594Z,1.00
2023-01-06T12:26:45.034Z,2.00
2023-01-06T12:30:51.944Z,1.03
2023-01-06T12:34:55.439Z,1.10
2023-01-06T12:39:02.719Z,2.00
2023-01-06T12:43:14.274Z,1.80
2023-01-06T12:47:20.755Z,0.80
2023-01-06T12:51:28.529Z,1.20
2023-01-06T12:55:45.565Z,0.80
2023-01-06T12:59:58.840Z,0.70
2023-01-06T13:04:14.592Z,0.83
2023-01-06T13:08:26.216Z,0.80
2023-01-06T13:12:48.684Z,0.73
2023-01-06T13:16:57.256Z,0.60
2023-01-06T13:21:04.386Z,0.80
2023-01-06T13:25:26.715Z,0.93
2023-01-06T13:29:40.245Z,0.80
2023-01-06T13:34:01.140Z,1.00
2023-01-06T13:38:18.483Z,1.40
2023-01-06T13:42:31.313Z,1.30
2023-01-06T13:46:36.278Z,1.03
2023-01-06T13:50:39.690Z,0.70
2023-01-06T13:55:26.345Z,0.73
2023-01-06T13:59:29.079Z,0.70
2023-01-06T14:03:33.570Z,0.70
2023-01-06T14:07:37.702Z,0.80
2023-01-06T14:11:41.630Z,0.80
2023-01-06T14:15:55.440Z,1.17
2023-01-06T14:19:59.600Z,0.90
2023-01-06T14:24:04.329Z,1.27
2023-01-06T14:28:09.528Z,1.00
2023-01-06T14:32:32.980Z,1.07
2023-01-06T14:36:37.407Z,0.80
2023-01-06T14:40:48.986Z,1.10
2023-01-06T14:44:53.683Z,1.00
2023-01-06T14:49:01.120Z,0.83
2023-01-06T14:53:08.807Z,1.70
2023-01-06T14:57:24.900Z,1.00
2023-01-06T15:01:32.246Z,0.90
2023-01-06T15:05:37.076Z,1.00
2023-01-06T15:09:41.168Z,0.70
2023-01-06T15:13:44.363Z,0.87
2023-01-06T15:17:47.312Z,1.00
2023-01-06T15:21:51.399Z,0.80
2023-01-06T15:25:56.862Z,0.80
2023-01-06T15:29:59.790Z,0.87
2023-01-06T15:34:04.817Z,1.50
2023-01-06T15:38:15.254Z,1.33
2023-01-06T15:42:23.071Z,0.93
2023-01-06T15:46:27.065Z,0.80
2023-01-06T15:50:31.835Z,1.20
2023-01-06T15:54:37.529Z,1.00
2023-01-06T15:58:42.005Z,1.30
2023-01-06T16:02:48.586Z,1.00
2023-01-06T16:06:51.479Z,1.37
2023-01-06T16:11:42.048Z,1.10
2023-01-06T16:15:50.456Z,1.17
2023-01-06T16:19:59.895Z,1.00
2023-01-06T16:24:05.304Z,1.10
2023-01-06T16:28:18.021Z,1.80
2023-01-06T16:32:28.329Z,1.77
2023-01-06T16:36:31.016Z,1.60
2023-01-06T16:40:33.764Z,1.30
2023-01-06T16:44:36.466Z,1.50
2023-01-06T16:48:40.858Z,1.30
2023-01-06T16:52:44.717Z,1.40
2023-01-06T16:56:49.963Z,2.10
2023-01-06T17:00:54.464Z,2.90
2023-01-06T17:04:59.046Z,2.10
2023-01-06T17:09:02.921Z,2.53
2023-01-06T17:13:23.749Z,1.30
2023-01-06T17:17:26.465Z,1.50
2023-01-06T17:21:34.599Z,1.10
2023-01-06T17:25:37.614Z,1.70
2023-01-06T17:29:40.619Z,1.00
2023-01-06T17:33:44.321Z,1.13
2023-01-06T17:37:51.288Z,1.17
2023-01-06T17:42:01.766Z,1.20
2023-01-06T17:46:16.378Z,1.30
2023-01-06T17:50:28.314Z,1.20
2023-01-06T17:54:56.638Z,2.10
2023-01-06T17:59:01.079Z,3.13
2023-01-06T18:03:05.435Z,6.40
2023-01-06T18:07:11.153Z,4.07
2023-01-06T18:11:30.515Z,0.87
2023-01-06T18:15:34.920Z,0.50
2023-01-06T18:19:38.832Z,0.60
2023-01-06T18:23:43.108Z,0.80
2023-01-06T18:27:47.671Z,1.40
2023-01-06T18:31:51.923Z,1.00
2023-01-06T18:35:57.582Z,0.80
2023-01-06T18:40:03.699Z,6.27
2023-01-06T18:44:16.422Z,2.30
2023-01-06T18:48:28.178Z,7.27
2023-01-06T18:52:42.255Z,7.63
2023-01-06T18:56:46.192Z,6.00
2023-01-06T19:00:53.819Z,3.63
2023-01-06T19:04:56.632Z,2.43
2023-01-06T19:08:59.322Z,2.20
2023-01-06T19:13:02.369Z,2.13
2023-01-06T19:17:21.977Z,1.80
2023-01-06T19:21:24.760Z,1.80
2023-01-06T19:25:32.149Z,0.83
2023-01-06T19:29:35.991Z,4.27
2023-01-06T19:33:42.604Z,1.00
2023-01-06T19:37:45.391Z,1.30
2023-01-06T19:41:48.221Z,2.33
2023-01-06T19:45:51.213Z,2.07
2023-01-06T19:49:59.669Z,2.33
2023-01-06T19:54:05.166Z,1.10
2023-01-06T19:58:16.865Z,1.10
2023-01-06T20:02:26.853Z,1.17
2023-01-06T20:06:31.279Z,1.40
2023-01-06T20:10:34.247Z,1.30
2023-01-06T20:14:37.032Z,1.50
2023-01-06T20:18:39.707Z,1.30
2023-01-06T20:22:44.608Z,1.30
2023-01-06T20:26:47.649Z,1.20
2023-01-06T20:30:50.329Z,1.40
2023-01-06T20:34:53.440Z,1.10
2023-01-06T20:38:57.691Z,0.80
2023-01-06T20:43:00.375Z,1.00
2023-01-06T20:47:03.116Z,0.80
2023-01-06T20:51:06.099Z,0.90
2023-01-06T20:55:10.707Z,1.00
2023-01-06T20:59:13.706Z,0.80
2023-01-06T21:03:16.635Z,0.87
2023-01-06T21:07:19.585Z,0.90
2023-01-06T21:11:23.638Z,1.00
2023-01-06T21:15:26.996Z,0.83
2023-01-06T21:19:29.955Z,0.83
2023-01-06T21:23:32.870Z,0.80
2023-01-06T21:27:36.927Z,0.90
2023-01-06T21:31:40.434Z,0.90
2023-01-06T21:35:43.107Z,0.80
2023-01-06T21:39:47.943Z,0.80
2023-01-06T21:43:52.319Z,0.80
2023-01-06T21:47:55.001Z,0.80
2023-01-06T21:51:58.757Z,1.00
2023-01-06T21:56:01.630Z,1.00
2023-01-06T22:00:09.777Z,1.30
2023-01-06T22:04:12.572Z,1.20
2023-01-06T22:08:15.228Z,1.30
2023-01-06T22:12:18.775Z,1.23
2023-01-06T22:16:23.130Z,1.20
2023-01-06T22:20:26.548Z,1.47
2023-01-06T22:24:30.499Z,1.30
2023-01-06T22:28:33.210Z,1.80
2023-01-06T22:32:44.366Z,2.20
2023-01-06T22:36:47.051Z,1.90
2023-01-06T22:40:49.702Z,2.00
2023-01-06T22:44:53.345Z,1.40
2023-01-06T22:48:57.925Z,1.90
2023-01-06T22:53:00.895Z,1.83
2023-01-06T22:57:03.557Z,1.57
2023-01-06T23:01:07.529Z,1.77
2023-01-06T23:05:12.259Z,2.60
2023-01-06T23:09:14.954Z,2.77
2023-01-06T23:13:17.668Z,2.90
2023-01-06T23:17:20.331Z,2.20
2023-01-06T23:21:26.565Z,2.20
2023-01-06T23:25:29.241Z,1.90
2023-01-06T23:29:32.656Z,1.60
2023-01-06T23:33:38.414Z,1.70
2023-01-06T23:37:42.450Z,1.80
2023-01-06T23:41:45.234Z,1.63
2023-01-06T23:45:47.871Z,1.50
2023-01-06T23:49:50.586Z,1.43
2023-01-06T23:53:54.686Z,1.43
2023-01-06T23:57:57.587Z,1.50
